RZO233 LPLA-KBOS
Flight info
| Callsign | RZO233 |
|---|---|
| Flight time | 5h 1m |
| Altitude | 36000 |
| Route | SIPRU DCT 40N030W 43N040W 44N050W DCT BOBTU DCT JAROM/M078F380 DCT LOMPI/N0446F380 N56G BRADD DCT EURRO OOSHN5 |
| Aircraft | A21N/M-SDGHIJ1J7M3P2RWXYZ/LB1D1 |
Departure
| Time | 2026-04-28 18:18 |
|---|---|
| Airport | Lajes Airport (LPLA) |
Arrival
| Time | 2026-04-28 23:20 |
|---|---|
| Airport | Boston Logan International Airport (KBOS) |
| Time | Latitude | Longitude | Altitude | Speed | Heading |
|---|---|---|---|---|---|
| 2026-04-28 17:52 | 38.75603 | -27.08747 | 183 ft | 0 kts | 93° |
| 2026-04-28 18:10 | 38.75603 | -27.08754 | 183 ft | 4 kts | 93° |
| 2026-04-28 18:10 | 38.75605 | -27.08781 | 183 ft | 2 kts | 93° |
| 2026-04-28 18:10 | 38.75603 | -27.08804 | 183 ft | 4 kts | 28° |
| 2026-04-28 18:10 | 38.75603 | -27.08802 | 183 ft | 4 kts | 320° |
| 2026-04-28 18:11 | 38.75586 | -27.08785 | 183 ft | 0 kts | 320° |
| 2026-04-28 18:13 | 38.75593 | -27.08793 | 183 ft | 3 kts | 319° |
| 2026-04-28 18:13 | 38.75619 | -27.08820 | 183 ft | 7 kts | 317° |
| 2026-04-28 18:13 | 38.75662 | -27.08868 | 183 ft | 10 kts | 322° |
| 2026-04-28 18:14 | 38.75735 | -27.08908 | 182 ft | 13 kts | 1° |
| 2026-04-28 18:14 | 38.75841 | -27.08901 | 182 ft | 17 kts | 4° |
| 2026-04-28 18:14 | 38.75969 | -27.08888 | 183 ft | 20 kts | 358° |
| 2026-04-28 18:14 | 38.76094 | -27.08985 | 181 ft | 23 kts | 320° |
| 2026-04-28 18:15 | 38.76226 | -27.09122 | 179 ft | 26 kts | 320° |
| 2026-04-28 18:15 | 38.76372 | -27.09273 | 176 ft | 28 kts | 321° |
| 2026-04-28 18:15 | 38.76535 | -27.09442 | 176 ft | 31 kts | 320° |
| 2026-04-28 18:15 | 38.76712 | -27.09629 | 175 ft | 34 kts | 321° |
| 2026-04-28 18:16 | 38.76905 | -27.09830 | 172 ft | 37 kts | 320° |
| 2026-04-28 18:16 | 38.77115 | -27.10047 | 168 ft | 40 kts | 320° |
| 2026-04-28 18:16 | 38.77330 | -27.10272 | 167 ft | 41 kts | 319° |
| 2026-04-28 18:16 | 38.77441 | -27.10389 | 167 ft | 9 kts | 322° |
| 2026-04-28 18:17 | 38.77501 | -27.10449 | 167 ft | 12 kts | 322° |
| 2026-04-28 18:17 | 38.77586 | -27.10466 | 166 ft | 13 kts | 341° |
| 2026-04-28 18:17 | 38.77565 | -27.10522 | 165 ft | 15 kts | 142° |
| 2026-04-28 18:17 | 38.77463 | -27.10410 | 167 ft | 39 kts | 140° |
| 2026-04-28 18:18 | 38.77066 | -27.09999 | 169 ft | 105 kts | 140° |
| 2026-04-28 18:18 | 38.76354 | -27.09254 | 177 ft | 157 kts | 141° |
| 2026-04-28 18:18 | 38.75465 | -27.08311 | 557 ft | 166 kts | 143° |
| 2026-04-28 18:18 | 38.74872 | -27.07697 | 1009 ft | 164 kts | 144° |
| 2026-04-28 18:19 | 38.73656 | -27.06525 | 1889 ft | 163 kts | 147° |
| 2026-04-28 18:19 | 38.72740 | -27.05659 | 2531 ft | 164 kts | 147° |
| 2026-04-28 18:19 | 38.71909 | -27.04655 | 3227 ft | 171 kts | 126° |
| 2026-04-28 18:19 | 38.71622 | -27.03098 | 3710 ft | 200 kts | 92° |
| 2026-04-28 18:20 | 38.72126 | -27.01313 | 4175 ft | 230 kts | 58° |
| 2026-04-28 18:20 | 38.73386 | -26.99943 | 4727 ft | 252 kts | 27° |
| 2026-04-28 18:20 | 38.75183 | -26.99361 | 5101 ft | 277 kts | 359° |
| 2026-04-28 18:20 | 38.77077 | -26.99831 | 5653 ft | 287 kts | 335° |
| 2026-04-28 18:21 | 38.78805 | -27.01101 | 6435 ft | 286 kts | 315° |
| 2026-04-28 18:21 | 38.80053 | -27.03049 | 7246 ft | 282 kts | 297° |
| 2026-04-28 18:21 | 38.81026 | -27.05250 | 8063 ft | 286 kts | 295° |
| 2026-04-28 18:21 | 38.81998 | -27.07509 | 8891 ft | 291 kts | 295° |
| 2026-04-28 18:22 | 38.82991 | -27.09792 | 9731 ft | 294 kts | 295° |
| 2026-04-28 18:22 | 38.84015 | -27.12119 | 10323 ft | 309 kts | 296° |
| 2026-04-28 18:22 | 38.85114 | -27.14603 | 10659 ft | 331 kts | 296° |
| 2026-04-28 18:22 | 38.86289 | -27.17244 | 11035 ft | 349 kts | 296° |
| 2026-04-28 18:23 | 38.87494 | -27.19949 | 11708 ft | 355 kts | 296° |
| 2026-04-28 18:23 | 38.88730 | -27.22715 | 12497 ft | 359 kts | 296° |
| 2026-04-28 18:23 | 38.89978 | -27.25509 | 13268 ft | 363 kts | 296° |
| 2026-04-28 18:23 | 38.91241 | -27.28339 | 14012 ft | 366 kts | 296° |
| 2026-04-28 18:24 | 38.92510 | -27.31184 | 14682 ft | 369 kts | 295° |
| 2026-04-28 18:24 | 38.93356 | -27.33096 | 15118 ft | 372 kts | 295° |
| 2026-04-28 18:24 | 38.95080 | -27.36991 | 16019 ft | 377 kts | 295° |
| 2026-04-28 18:24 | 38.96392 | -27.39940 | 16671 ft | 381 kts | 295° |
| 2026-04-28 18:25 | 38.97720 | -27.42909 | 17306 ft | 385 kts | 295° |
| 2026-04-28 18:25 | 38.99040 | -27.45870 | 17911 ft | 389 kts | 295° |
| 2026-04-28 18:25 | 39.00389 | -27.48904 | 18497 ft | 392 kts | 295° |
| 2026-04-28 18:26 | 39.03105 | -27.55055 | 19638 ft | 399 kts | 295° |
| 2026-04-28 18:26 | 39.04483 | -27.58175 | 20193 ft | 402 kts | 295° |
| 2026-04-28 18:26 | 39.05868 | -27.61315 | 20725 ft | 405 kts | 295° |
| 2026-04-28 18:26 | 39.07264 | -27.64489 | 21255 ft | 409 kts | 295° |
| 2026-04-28 18:27 | 39.08673 | -27.67688 | 21778 ft | 412 kts | 295° |
| 2026-04-28 18:27 | 39.10091 | -27.70909 | 22293 ft | 415 kts | 294° |
| 2026-04-28 18:27 | 39.11516 | -27.74156 | 22793 ft | 418 kts | 294° |
| 2026-04-28 18:27 | 39.12950 | -27.77426 | 23274 ft | 421 kts | 294° |
| 2026-04-28 18:28 | 39.14395 | -27.80731 | 23760 ft | 424 kts | 294° |
| 2026-04-28 18:28 | 39.15846 | -27.84059 | 24223 ft | 427 kts | 294° |
| 2026-04-28 18:28 | 39.17305 | -27.87406 | 24672 ft | 430 kts | 294° |
| 2026-04-28 18:28 | 39.18728 | -27.90803 | 25133 ft | 431 kts | 292° |
| 2026-04-28 18:29 | 39.20112 | -27.94242 | 25565 ft | 433 kts | 292° |
| 2026-04-28 18:29 | 39.21486 | -27.97662 | 25987 ft | 435 kts | 292° |
| 2026-04-28 18:29 | 39.22881 | -28.01151 | 26407 ft | 437 kts | 292° |
| 2026-04-28 18:29 | 39.24278 | -28.04639 | 26795 ft | 439 kts | 291° |
| 2026-04-28 18:30 | 39.25682 | -28.08156 | 27176 ft | 442 kts | 291° |
| 2026-04-28 18:30 | 39.26158 | -28.09346 | 27301 ft | 442 kts | 291° |
| 2026-04-28 18:30 | 39.28509 | -28.15229 | 27915 ft | 446 kts | 291° |
| 2026-04-28 18:30 | 39.29933 | -28.18797 | 28282 ft | 447 kts | 291° |
| 2026-04-28 18:31 | 39.31352 | -28.22367 | 28622 ft | 449 kts | 291° |
| 2026-04-28 18:31 | 39.32780 | -28.25967 | 28979 ft | 450 kts | 291° |
| 2026-04-28 18:31 | 39.34213 | -28.29572 | 29302 ft | 452 kts | 291° |
| 2026-04-28 18:31 | 39.35643 | -28.33200 | 29623 ft | 453 kts | 291° |
| 2026-04-28 18:32 | 39.37073 | -28.36839 | 29925 ft | 455 kts | 291° |
| 2026-04-28 18:32 | 39.38522 | -28.40476 | 30266 ft | 456 kts | 292° |
| 2026-04-28 18:32 | 39.39978 | -28.44124 | 30614 ft | 455 kts | 291° |
| 2026-04-28 18:32 | 39.41401 | -28.47720 | 30992 ft | 454 kts | 291° |
| 2026-04-28 18:33 | 39.42834 | -28.51353 | 31346 ft | 453 kts | 291° |
| 2026-04-28 18:33 | 39.44263 | -28.54990 | 31694 ft | 452 kts | 291° |
| 2026-04-28 18:33 | 39.45689 | -28.58626 | 32048 ft | 451 kts | 291° |
| 2026-04-28 18:33 | 39.47108 | -28.62242 | 32374 ft | 451 kts | 291° |
| 2026-04-28 18:34 | 39.48528 | -28.65853 | 32691 ft | 450 kts | 291° |
| 2026-04-28 18:34 | 39.49946 | -28.69470 | 32999 ft | 449 kts | 291° |
| 2026-04-28 18:34 | 39.51357 | -28.73072 | 33293 ft | 448 kts | 291° |
| 2026-04-28 18:34 | 39.52768 | -28.76671 | 33577 ft | 448 kts | 291° |
| 2026-04-28 18:35 | 39.54171 | -28.80269 | 33844 ft | 447 kts | 291° |
| 2026-04-28 18:35 | 39.55575 | -28.83866 | 34076 ft | 447 kts | 291° |
| 2026-04-28 18:35 | 39.56954 | -28.87415 | 34321 ft | 446 kts | 291° |
| 2026-04-28 18:35 | 39.58352 | -28.91004 | 34568 ft | 446 kts | 291° |
| 2026-04-28 18:36 | 39.59751 | -28.94596 | 34807 ft | 445 kts | 291° |
| 2026-04-28 18:36 | 39.61146 | -28.98179 | 35045 ft | 444 kts | 291° |
| 2026-04-28 18:36 | 39.62538 | -29.01763 | 35246 ft | 444 kts | 291° |
| 2026-04-28 18:36 | 39.63923 | -29.05345 | 35437 ft | 444 kts | 291° |
| 2026-04-28 18:37 | 39.65308 | -29.08921 | 35645 ft | 443 kts | 290° |
| 2026-04-28 18:37 | 39.66683 | -29.12498 | 35823 ft | 442 kts | 290° |
| 2026-04-28 18:37 | 39.68049 | -29.16075 | 35912 ft | 443 kts | 290° |
| 2026-04-28 18:38 | 39.70796 | -29.23236 | 35894 ft | 442 kts | 290° |
| 2026-04-28 18:38 | 39.73528 | -29.30326 | 35881 ft | 442 kts | 290° |
| 2026-04-28 18:39 | 39.76277 | -29.37482 | 35881 ft | 443 kts | 290° |
| 2026-04-28 18:39 | 39.79031 | -29.44663 | 35880 ft | 443 kts | 289° |
| 2026-04-28 18:40 | 39.81771 | -29.51860 | 35875 ft | 443 kts | 289° |
| 2026-04-28 18:40 | 39.84512 | -29.59047 | 35864 ft | 444 kts | 289° |
| 2026-04-28 18:41 | 39.87249 | -29.66248 | 35866 ft | 444 kts | 289° |
| 2026-04-28 18:41 | 39.89983 | -29.73448 | 35864 ft | 443 kts | 289° |
| 2026-04-28 18:42 | 39.92679 | -29.80609 | 35866 ft | 443 kts | 289° |
| 2026-04-28 18:42 | 39.95394 | -29.87828 | 35880 ft | 443 kts | 289° |
| 2026-04-28 18:43 | 39.98104 | -29.95047 | 35864 ft | 443 kts | 289° |
| 2026-04-28 18:43 | 40.00803 | -30.02276 | 35865 ft | 442 kts | 288° |
| 2026-04-28 18:44 | 40.03391 | -30.09548 | 35865 ft | 442 kts | 287° |
| 2026-04-28 18:44 | 40.07267 | -30.20462 | 35859 ft | 442 kts | 287° |
| 2026-04-28 18:45 | 40.09859 | -30.27761 | 35866 ft | 443 kts | 287° |
| 2026-04-28 18:45 | 40.12441 | -30.35025 | 35863 ft | 443 kts | 287° |
| 2026-04-28 18:46 | 40.15033 | -30.42331 | 35856 ft | 443 kts | 287° |
| 2026-04-28 18:46 | 40.17628 | -30.49665 | 35864 ft | 444 kts | 287° |
| 2026-04-28 18:47 | 40.20222 | -30.57007 | 35863 ft | 444 kts | 287° |
| 2026-04-28 18:47 | 40.22810 | -30.64376 | 35859 ft | 445 kts | 287° |
| 2026-04-28 18:48 | 40.25371 | -30.71720 | 35853 ft | 447 kts | 287° |
| 2026-04-28 18:48 | 40.27958 | -30.79119 | 35845 ft | 447 kts | 287° |
| 2026-04-28 18:49 | 40.29689 | -30.84080 | 35844 ft | 448 kts | 287° |
| 2026-04-28 18:49 | 40.33127 | -30.93978 | 35852 ft | 449 kts | 287° |
| 2026-04-28 18:50 | 40.35717 | -31.01451 | 35847 ft | 450 kts | 286° |
| 2026-04-28 18:50 | 40.37864 | -31.07663 | 35845 ft | 450 kts | 286° |
| 2026-04-28 18:51 | 40.40869 | -31.16370 | 35856 ft | 451 kts | 286° |
| 2026-04-28 18:51 | 40.43031 | -31.22650 | 35853 ft | 451 kts | 286° |
| 2026-04-28 18:52 | 40.45601 | -31.30123 | 35847 ft | 451 kts | 286° |
| 2026-04-28 18:52 | 40.48179 | -31.37660 | 35853 ft | 452 kts | 286° |
| 2026-04-28 18:53 | 40.50757 | -31.45201 | 35855 ft | 452 kts | 286° |
| 2026-04-28 18:53 | 40.53332 | -31.52760 | 35847 ft | 453 kts | 286° |
| 2026-04-28 18:54 | 40.55896 | -31.60269 | 35850 ft | 453 kts | 286° |
| 2026-04-28 18:54 | 40.58457 | -31.67833 | 35847 ft | 453 kts | 285° |
| 2026-04-28 18:55 | 40.61023 | -31.75412 | 35846 ft | 453 kts | 285° |
| 2026-04-28 18:55 | 40.63579 | -31.82994 | 35853 ft | 453 kts | 285° |
| 2026-04-28 18:56 | 40.66121 | -31.90579 | 35848 ft | 453 kts | 285° |
| 2026-04-28 18:56 | 40.68669 | -31.98178 | 35850 ft | 453 kts | 285° |
| 2026-04-28 18:57 | 40.71212 | -32.05781 | 35848 ft | 454 kts | 286° |
| 2026-04-28 18:57 | 40.73755 | -32.13414 | 35853 ft | 455 kts | 286° |
| 2026-04-28 18:58 | 40.76296 | -32.21064 | 35849 ft | 455 kts | 286° |
| 2026-04-28 18:58 | 40.78821 | -32.28667 | 35855 ft | 455 kts | 286° |
| 2026-04-28 18:59 | 40.81357 | -32.36342 | 35851 ft | 456 kts | 286° |
| 2026-04-28 18:59 | 40.83892 | -32.44032 | 35850 ft | 457 kts | 287° |
| 2026-04-28 19:00 | 40.86423 | -32.51739 | 35844 ft | 457 kts | 287° |
| 2026-04-28 19:00 | 40.88947 | -32.59442 | 35851 ft | 457 kts | 287° |
| 2026-04-28 19:01 | 40.91469 | -32.67159 | 35846 ft | 456 kts | 287° |
| 2026-04-28 19:01 | 40.93975 | -32.74841 | 35852 ft | 457 kts | 287° |
| 2026-04-28 19:02 | 40.96488 | -32.82574 | 35862 ft | 457 kts | 287° |
| 2026-04-28 19:02 | 40.98998 | -32.90306 | 35863 ft | 458 kts | 287° |
| 2026-04-28 19:03 | 41.01503 | -32.98069 | 35852 ft | 458 kts | 288° |
| 2026-04-28 19:03 | 41.04013 | -33.05842 | 35853 ft | 458 kts | 288° |
| 2026-04-28 19:04 | 41.06509 | -33.13614 | 35861 ft | 458 kts | 288° |
| 2026-04-28 19:04 | 41.08988 | -33.21342 | 35868 ft | 458 kts | 288° |
| 2026-04-28 19:05 | 41.11480 | -33.29125 | 35862 ft | 458 kts | 288° |
| 2026-04-28 19:05 | 41.13967 | -33.36913 | 35858 ft | 458 kts | 288° |
| 2026-04-28 19:06 | 41.16026 | -33.43405 | 35857 ft | 459 kts | 288° |
| 2026-04-28 19:06 | 41.18922 | -33.52538 | 35858 ft | 459 kts | 289° |
| 2026-04-28 19:07 | 41.21398 | -33.60363 | 35864 ft | 460 kts | 289° |
| 2026-04-28 19:07 | 41.23872 | -33.68207 | 35857 ft | 460 kts | 289° |
| 2026-04-28 19:08 | 41.26334 | -33.76057 | 35863 ft | 460 kts | 289° |
| 2026-04-28 19:08 | 41.28779 | -33.83871 | 35866 ft | 460 kts | 289° |
| 2026-04-28 19:09 | 41.31233 | -33.91726 | 35861 ft | 460 kts | 289° |
| 2026-04-28 19:09 | 41.33666 | -33.99602 | 35865 ft | 460 kts | 289° |
| 2026-04-28 19:10 | 41.36097 | -34.07484 | 35866 ft | 460 kts | 290° |
| 2026-04-28 19:10 | 41.38530 | -34.15351 | 35886 ft | 459 kts | 290° |
| 2026-04-28 19:11 | 41.40963 | -34.23203 | 35899 ft | 459 kts | 290° |
| 2026-04-28 19:11 | 41.43370 | -34.31036 | 35900 ft | 459 kts | 290° |
| 2026-04-28 19:12 | 41.45785 | -34.38919 | 35900 ft | 459 kts | 290° |
| 2026-04-28 19:12 | 41.48186 | -34.46794 | 35900 ft | 458 kts | 290° |
| 2026-04-28 19:13 | 41.50612 | -34.54665 | 35901 ft | 458 kts | 290° |
| 2026-04-28 19:13 | 41.52993 | -34.62561 | 35900 ft | 458 kts | 290° |
| 2026-04-28 19:14 | 41.55373 | -34.70442 | 35904 ft | 457 kts | 290° |
| 2026-04-28 19:14 | 41.57755 | -34.78309 | 35910 ft | 456 kts | 290° |
| 2026-04-28 19:15 | 41.60110 | -34.86125 | 35911 ft | 456 kts | 290° |
| 2026-04-28 19:15 | 41.62074 | -34.92663 | 35910 ft | 456 kts | 290° |
| 2026-04-28 19:16 | 41.64852 | -35.01844 | 35910 ft | 455 kts | 291° |
| 2026-04-28 19:16 | 41.67210 | -35.09708 | 35910 ft | 454 kts | 291° |
| 2026-04-28 19:17 | 41.69533 | -35.17504 | 35911 ft | 454 kts | 291° |
| 2026-04-28 19:17 | 41.71863 | -35.25347 | 35916 ft | 453 kts | 291° |
| 2026-04-28 19:18 | 41.74178 | -35.33197 | 35920 ft | 453 kts | 291° |
| 2026-04-28 19:18 | 41.76482 | -35.41047 | 35920 ft | 452 kts | 291° |
| 2026-04-28 19:19 | 41.78783 | -35.48891 | 35921 ft | 452 kts | 291° |
| 2026-04-28 19:19 | 41.81077 | -35.56738 | 35921 ft | 452 kts | 292° |
| 2026-04-28 19:20 | 41.83355 | -35.64528 | 35920 ft | 452 kts | 292° |
| 2026-04-28 19:20 | 41.85645 | -35.72373 | 35920 ft | 452 kts | 292° |
| 2026-04-28 19:21 | 41.87936 | -35.80219 | 35930 ft | 451 kts | 292° |
| 2026-04-28 19:21 | 41.90206 | -35.88069 | 35929 ft | 451 kts | 292° |
| 2026-04-28 19:22 | 41.92087 | -35.94594 | 35925 ft | 451 kts | 292° |
| 2026-04-28 19:22 | 41.94739 | -36.03792 | 35929 ft | 451 kts | 292° |
| 2026-04-28 19:23 | 41.96993 | -36.11616 | 35929 ft | 451 kts | 292° |
| 2026-04-28 19:23 | 41.99245 | -36.19492 | 35931 ft | 451 kts | 291° |
| 2026-04-28 19:24 | 42.01484 | -36.27379 | 35939 ft | 451 kts | 292° |
| 2026-04-28 19:24 | 42.03722 | -36.35264 | 35940 ft | 450 kts | 292° |
| 2026-04-28 19:25 | 42.05956 | -36.43145 | 35940 ft | 450 kts | 292° |
| 2026-04-28 19:25 | 42.08180 | -36.51008 | 35940 ft | 449 kts | 292° |
| 2026-04-28 19:26 | 42.10415 | -36.58873 | 35940 ft | 449 kts | 292° |
| 2026-04-28 19:26 | 42.12614 | -36.66661 | 35949 ft | 447 kts | 292° |
| 2026-04-28 19:27 | 42.14809 | -36.74507 | 35950 ft | 446 kts | 292° |
| 2026-04-28 19:27 | 42.16997 | -36.82344 | 35950 ft | 445 kts | 292° |
| 2026-04-28 19:28 | 42.19172 | -36.90159 | 35951 ft | 444 kts | 292° |
| 2026-04-28 19:28 | 42.21337 | -36.97960 | 35953 ft | 443 kts | 293° |
| 2026-04-28 19:29 | 42.23127 | -37.04425 | 35961 ft | 442 kts | 293° |
| 2026-04-28 19:29 | 42.25630 | -37.13502 | 35958 ft | 441 kts | 293° |
| 2026-04-28 19:30 | 42.27759 | -37.21260 | 35946 ft | 440 kts | 293° |
| 2026-04-28 19:30 | 42.29864 | -37.28947 | 35940 ft | 438 kts | 294° |
| 2026-04-28 19:31 | 42.31972 | -37.36665 | 35946 ft | 437 kts | 294° |
| 2026-04-28 19:31 | 42.34071 | -37.44377 | 35951 ft | 437 kts | 294° |
| 2026-04-28 19:32 | 42.36166 | -37.52089 | 35950 ft | 437 kts | 294° |
| 2026-04-28 19:32 | 42.38251 | -37.59796 | 35950 ft | 436 kts | 294° |
| 2026-04-28 19:33 | 42.40327 | -37.67500 | 35950 ft | 435 kts | 294° |
| 2026-04-28 19:33 | 42.42399 | -37.75194 | 35953 ft | 435 kts | 294° |
| 2026-04-28 19:34 | 42.44461 | -37.82892 | 35960 ft | 434 kts | 294° |
| 2026-04-28 19:34 | 42.46172 | -37.89289 | 35961 ft | 434 kts | 294° |
| 2026-04-28 19:35 | 42.48553 | -37.98246 | 35960 ft | 434 kts | 294° |
| 2026-04-28 19:35 | 42.50267 | -38.04697 | 35963 ft | 432 kts | 294° |
| 2026-04-28 19:36 | 42.52277 | -38.12295 | 35964 ft | 431 kts | 294° |
| 2026-04-28 19:36 | 42.54297 | -38.19955 | 35971 ft | 431 kts | 294° |
| 2026-04-28 19:37 | 42.55975 | -38.26324 | 35970 ft | 431 kts | 294° |
| 2026-04-28 19:37 | 42.58321 | -38.35278 | 35969 ft | 431 kts | 294° |
| 2026-04-28 19:38 | 42.60325 | -38.42944 | 35970 ft | 430 kts | 294° |
| 2026-04-28 19:38 | 42.62322 | -38.50591 | 35978 ft | 429 kts | 294° |
| 2026-04-28 19:39 | 42.64297 | -38.58198 | 35981 ft | 429 kts | 294° |
| 2026-04-28 19:39 | 42.66278 | -38.65843 | 35979 ft | 428 kts | 294° |
| 2026-04-28 19:40 | 42.68249 | -38.73483 | 35980 ft | 428 kts | 294° |
| 2026-04-28 19:40 | 42.70214 | -38.81119 | 35977 ft | 427 kts | 294° |
| 2026-04-28 19:41 | 42.72166 | -38.88749 | 35970 ft | 426 kts | 294° |
| 2026-04-28 19:41 | 42.74099 | -38.96316 | 35971 ft | 425 kts | 294° |
| 2026-04-28 19:42 | 42.76032 | -39.03917 | 35971 ft | 424 kts | 294° |
| 2026-04-28 19:42 | 42.77961 | -39.11515 | 35976 ft | 424 kts | 294° |
| 2026-04-28 19:43 | 42.79881 | -39.19108 | 35981 ft | 424 kts | 294° |
| 2026-04-28 19:43 | 42.81793 | -39.26695 | 35980 ft | 423 kts | 293° |
| 2026-04-28 19:44 | 42.83691 | -39.34233 | 35981 ft | 423 kts | 293° |
| 2026-04-28 19:44 | 42.85592 | -39.41819 | 35994 ft | 422 kts | 293° |
| 2026-04-28 19:45 | 42.87485 | -39.49383 | 35994 ft | 421 kts | 293° |
| 2026-04-28 19:45 | 42.89366 | -39.56900 | 35987 ft | 421 kts | 293° |
| 2026-04-28 19:46 | 42.91248 | -39.64471 | 35995 ft | 421 kts | 293° |
| 2026-04-28 19:46 | 42.93120 | -39.72033 | 35997 ft | 420 kts | 293° |
| 2026-04-28 19:47 | 42.94988 | -39.79597 | 35995 ft | 420 kts | 293° |
| 2026-04-28 19:47 | 42.96842 | -39.87169 | 36000 ft | 420 kts | 293° |
| 2026-04-28 19:48 | 42.98704 | -39.94744 | 36009 ft | 421 kts | 293° |
| 2026-04-28 19:48 | 43.00346 | -40.02447 | 36010 ft | 425 kts | 286° |
| 2026-04-28 19:49 | 43.01469 | -40.10280 | 36009 ft | 420 kts | 285° |
| 2026-04-28 19:49 | 43.02599 | -40.18131 | 36009 ft | 420 kts | 285° |
| 2026-04-28 19:50 | 43.04279 | -40.29892 | 36021 ft | 420 kts | 285° |
| 2026-04-28 19:51 | 43.05384 | -40.37609 | 36021 ft | 421 kts | 285° |
| 2026-04-28 19:51 | 43.06516 | -40.45450 | 36022 ft | 420 kts | 285° |
| 2026-04-28 19:52 | 43.07623 | -40.53252 | 36030 ft | 421 kts | 285° |
| 2026-04-28 19:52 | 43.08728 | -40.61116 | 36031 ft | 420 kts | 285° |
| 2026-04-28 19:53 | 43.09823 | -40.68996 | 36029 ft | 420 kts | 284° |
| 2026-04-28 19:53 | 43.10885 | -40.76861 | 36036 ft | 420 kts | 284° |
| 2026-04-28 19:54 | 43.11963 | -40.84706 | 36038 ft | 419 kts | 284° |
| 2026-04-28 19:54 | 43.13034 | -40.92497 | 36049 ft | 419 kts | 284° |
| 2026-04-28 19:55 | 43.14105 | -41.00338 | 36043 ft | 419 kts | 284° |
| 2026-04-28 19:55 | 43.15172 | -41.08176 | 36052 ft | 418 kts | 284° |
| 2026-04-28 19:56 | 43.16237 | -41.16010 | 36055 ft | 418 kts | 284° |
| 2026-04-28 19:56 | 43.17297 | -41.23836 | 36046 ft | 418 kts | 284° |
| 2026-04-28 19:57 | 43.18361 | -41.31668 | 36059 ft | 418 kts | 284° |
| 2026-04-28 19:57 | 43.19417 | -41.39498 | 36055 ft | 418 kts | 284° |
| 2026-04-28 19:58 | 43.20450 | -41.47284 | 36057 ft | 418 kts | 283° |
| 2026-04-28 19:58 | 43.21468 | -41.55122 | 36066 ft | 417 kts | 283° |
| 2026-04-28 19:59 | 43.22484 | -41.62956 | 36070 ft | 417 kts | 283° |
| 2026-04-28 19:59 | 43.23508 | -41.70770 | 36072 ft | 416 kts | 283° |
| 2026-04-28 20:00 | 43.24516 | -41.78582 | 36077 ft | 416 kts | 283° |
| 2026-04-28 20:00 | 43.25512 | -41.86402 | 36081 ft | 416 kts | 283° |
| 2026-04-28 20:01 | 43.26506 | -41.94226 | 36081 ft | 416 kts | 283° |
| 2026-04-28 20:01 | 43.27508 | -42.02046 | 36081 ft | 416 kts | 283° |
| 2026-04-28 20:02 | 43.28483 | -42.09781 | 36088 ft | 412 kts | 282° |
| 2026-04-28 20:02 | 43.29457 | -42.17538 | 36089 ft | 412 kts | 282° |
| 2026-04-28 20:03 | 43.30434 | -42.25295 | 36090 ft | 412 kts | 282° |
| 2026-04-28 20:03 | 43.31420 | -42.33051 | 36100 ft | 412 kts | 282° |
| 2026-04-28 20:04 | 43.32391 | -42.40788 | 36101 ft | 411 kts | 282° |
| 2026-04-28 20:04 | 43.33352 | -42.48549 | 36100 ft | 411 kts | 282° |
| 2026-04-28 20:05 | 43.34300 | -42.56303 | 36108 ft | 411 kts | 282° |
| 2026-04-28 20:05 | 43.35236 | -42.63988 | 36111 ft | 410 kts | 282° |
| 2026-04-28 20:06 | 43.36171 | -42.71721 | 36112 ft | 410 kts | 282° |
| 2026-04-28 20:06 | 43.37098 | -42.79444 | 36117 ft | 409 kts | 282° |
| 2026-04-28 20:07 | 43.38023 | -42.87167 | 36122 ft | 408 kts | 282° |
| 2026-04-28 20:07 | 43.38936 | -42.94869 | 36117 ft | 408 kts | 282° |
| 2026-04-28 20:08 | 43.39846 | -43.02557 | 36125 ft | 407 kts | 282° |
| 2026-04-28 20:08 | 43.40748 | -43.10244 | 36123 ft | 406 kts | 282° |
| 2026-04-28 20:09 | 43.41628 | -43.17869 | 36125 ft | 406 kts | 281° |
| 2026-04-28 20:09 | 43.42502 | -43.25519 | 36128 ft | 404 kts | 282° |
| 2026-04-28 20:10 | 43.43397 | -43.33161 | 36131 ft | 404 kts | 282° |
| 2026-04-28 20:10 | 43.44280 | -43.40800 | 36134 ft | 404 kts | 281° |
| 2026-04-28 20:11 | 43.45152 | -43.48428 | 36142 ft | 403 kts | 281° |
| 2026-04-28 20:11 | 43.45998 | -43.56065 | 36147 ft | 403 kts | 281° |
| 2026-04-28 20:12 | 43.46834 | -43.63653 | 36149 ft | 402 kts | 281° |
| 2026-04-28 20:12 | 43.47679 | -43.71257 | 36148 ft | 401 kts | 281° |
| 2026-04-28 20:13 | 43.48521 | -43.78869 | 36153 ft | 401 kts | 281° |
| 2026-04-28 20:13 | 43.49379 | -43.86465 | 36158 ft | 401 kts | 281° |
| 2026-04-28 20:14 | 43.50222 | -43.94007 | 36160 ft | 400 kts | 281° |
| 2026-04-28 20:14 | 43.51058 | -44.01600 | 36159 ft | 400 kts | 281° |
| 2026-04-28 20:15 | 43.51875 | -44.09166 | 36166 ft | 399 kts | 281° |
| 2026-04-28 20:15 | 43.52670 | -44.16739 | 36170 ft | 399 kts | 281° |
| 2026-04-28 20:16 | 43.53469 | -44.24319 | 36170 ft | 399 kts | 281° |
| 2026-04-28 20:16 | 43.54275 | -44.31889 | 36174 ft | 399 kts | 281° |
| 2026-04-28 20:17 | 43.55078 | -44.39456 | 36180 ft | 399 kts | 281° |
| 2026-04-28 20:17 | 43.55875 | -44.46979 | 36178 ft | 399 kts | 281° |
| 2026-04-28 20:18 | 43.56668 | -44.54555 | 36183 ft | 399 kts | 280° |
| 2026-04-28 20:18 | 43.57442 | -44.62127 | 36193 ft | 399 kts | 280° |
| 2026-04-28 20:19 | 43.58226 | -44.69697 | 36187 ft | 398 kts | 281° |
| 2026-04-28 20:19 | 43.58886 | -44.75981 | 36188 ft | 398 kts | 280° |
| 2026-04-28 20:20 | 43.59659 | -44.83539 | 36198 ft | 398 kts | 280° |
| 2026-04-28 20:20 | 43.60425 | -44.91101 | 36201 ft | 398 kts | 280° |
| 2026-04-28 20:21 | 43.61182 | -44.98665 | 36201 ft | 398 kts | 280° |
| 2026-04-28 20:21 | 43.61935 | -45.06235 | 36200 ft | 397 kts | 280° |
| 2026-04-28 20:22 | 43.62683 | -45.13802 | 36209 ft | 397 kts | 280° |
| 2026-04-28 20:22 | 43.63420 | -45.21317 | 36210 ft | 397 kts | 280° |
| 2026-04-28 20:23 | 43.64159 | -45.28894 | 36210 ft | 397 kts | 280° |
| 2026-04-28 20:23 | 43.64888 | -45.36477 | 36213 ft | 397 kts | 280° |
| 2026-04-28 20:24 | 43.65621 | -45.44037 | 36219 ft | 397 kts | 280° |
| 2026-04-28 20:24 | 43.66342 | -45.51595 | 36229 ft | 397 kts | 279° |
| 2026-04-28 20:25 | 43.67059 | -45.59167 | 36236 ft | 397 kts | 279° |
| 2026-04-28 20:25 | 43.67768 | -45.66683 | 36241 ft | 397 kts | 279° |
| 2026-04-28 20:26 | 43.68473 | -45.74245 | 36241 ft | 397 kts | 279° |
| 2026-04-28 20:26 | 43.69175 | -45.81822 | 36246 ft | 397 kts | 279° |
| 2026-04-28 20:27 | 43.69873 | -45.89405 | 36251 ft | 398 kts | 279° |
| 2026-04-28 20:27 | 43.70562 | -45.96955 | 36251 ft | 398 kts | 279° |
| 2026-04-28 20:28 | 43.71248 | -46.04536 | 36251 ft | 398 kts | 279° |
| 2026-04-28 20:28 | 43.71934 | -46.12134 | 36255 ft | 397 kts | 279° |
| 2026-04-28 20:29 | 43.72608 | -46.19674 | 36260 ft | 397 kts | 279° |
| 2026-04-28 20:29 | 43.73282 | -46.27259 | 36260 ft | 398 kts | 279° |
| 2026-04-28 20:30 | 43.73948 | -46.34852 | 36260 ft | 397 kts | 279° |
| 2026-04-28 20:30 | 43.74604 | -46.42431 | 36260 ft | 397 kts | 279° |
| 2026-04-28 20:31 | 43.75265 | -46.50002 | 36269 ft | 397 kts | 279° |
| 2026-04-28 20:31 | 43.75915 | -46.57574 | 36269 ft | 396 kts | 279° |
| 2026-04-28 20:32 | 43.76555 | -46.65147 | 36270 ft | 396 kts | 279° |
| 2026-04-28 20:32 | 43.77196 | -46.72714 | 36271 ft | 396 kts | 279° |
| 2026-04-28 20:33 | 43.77825 | -46.80217 | 36276 ft | 395 kts | 279° |
| 2026-04-28 20:33 | 43.78452 | -46.87764 | 36280 ft | 395 kts | 279° |
| 2026-04-28 20:34 | 43.79074 | -46.95310 | 36280 ft | 395 kts | 278° |
| 2026-04-28 20:34 | 43.79696 | -47.02847 | 36280 ft | 394 kts | 278° |
| 2026-04-28 20:35 | 43.80306 | -47.10395 | 36281 ft | 394 kts | 278° |
| 2026-04-28 20:35 | 43.80914 | -47.17936 | 36288 ft | 394 kts | 278° |
| 2026-04-28 20:36 | 43.81513 | -47.25473 | 36289 ft | 394 kts | 278° |
| 2026-04-28 20:36 | 43.82111 | -47.32986 | 36290 ft | 394 kts | 278° |
| 2026-04-28 20:37 | 43.82689 | -47.40527 | 36290 ft | 394 kts | 278° |
| 2026-04-28 20:37 | 43.83261 | -47.48077 | 36290 ft | 393 kts | 278° |
| 2026-04-28 20:38 | 43.83846 | -47.55618 | 36298 ft | 393 kts | 278° |
| 2026-04-28 20:38 | 43.84423 | -47.63165 | 36299 ft | 394 kts | 278° |
| 2026-04-28 20:39 | 43.84988 | -47.70714 | 36301 ft | 394 kts | 278° |
| 2026-04-28 20:39 | 43.85568 | -47.78247 | 36300 ft | 394 kts | 278° |
| 2026-04-28 20:40 | 43.86141 | -47.85800 | 36301 ft | 394 kts | 278° |
| 2026-04-28 20:40 | 43.86696 | -47.93308 | 36313 ft | 394 kts | 278° |
| 2026-04-28 20:41 | 43.87243 | -48.00863 | 36302 ft | 394 kts | 278° |
| 2026-04-28 20:41 | 43.87790 | -48.08428 | 36313 ft | 394 kts | 278° |
| 2026-04-28 20:42 | 43.88331 | -48.15985 | 36319 ft | 394 kts | 278° |
| 2026-04-28 20:42 | 43.88868 | -48.23545 | 36309 ft | 394 kts | 278° |
| 2026-04-28 20:43 | 43.89403 | -48.31102 | 36313 ft | 394 kts | 278° |
| 2026-04-28 20:43 | 43.89926 | -48.38616 | 36313 ft | 393 kts | 278° |
| 2026-04-28 20:44 | 43.90449 | -48.46156 | 36319 ft | 393 kts | 278° |
| 2026-04-28 20:44 | 43.90970 | -48.53714 | 36321 ft | 394 kts | 278° |
| 2026-04-28 20:45 | 43.91485 | -48.61265 | 36323 ft | 392 kts | 277° |
| 2026-04-28 20:45 | 43.91994 | -48.68807 | 36321 ft | 392 kts | 277° |
| 2026-04-28 20:46 | 43.92496 | -48.76344 | 36321 ft | 393 kts | 277° |
| 2026-04-28 20:46 | 43.92993 | -48.83887 | 36322 ft | 392 kts | 277° |
| 2026-04-28 20:47 | 43.93479 | -48.91364 | 36323 ft | 392 kts | 277° |
| 2026-04-28 20:47 | 43.93965 | -48.98903 | 36326 ft | 391 kts | 277° |
| 2026-04-28 20:48 | 43.94442 | -49.06418 | 36328 ft | 391 kts | 277° |
| 2026-04-28 20:48 | 43.94915 | -49.13933 | 36326 ft | 391 kts | 277° |
| 2026-04-28 20:49 | 43.95386 | -49.21467 | 36332 ft | 391 kts | 277° |
| 2026-04-28 20:49 | 43.95840 | -49.28959 | 36339 ft | 392 kts | 276° |
| 2026-04-28 20:50 | 43.96298 | -49.36504 | 36341 ft | 392 kts | 276° |
| 2026-04-28 20:50 | 43.96757 | -49.44056 | 36343 ft | 393 kts | 276° |
| 2026-04-28 20:51 | 43.97211 | -49.51626 | 36340 ft | 393 kts | 276° |
| 2026-04-28 20:51 | 43.97663 | -49.59198 | 36338 ft | 393 kts | 276° |
| 2026-04-28 20:52 | 43.98102 | -49.66778 | 36339 ft | 394 kts | 276° |
| 2026-04-28 20:52 | 43.98543 | -49.74328 | 36338 ft | 394 kts | 276° |
| 2026-04-28 20:53 | 43.99193 | -49.85713 | 36350 ft | 394 kts | 276° |
| 2026-04-28 20:53 | 43.99617 | -49.93323 | 36349 ft | 394 kts | 276° |
| 2026-04-28 20:54 | 44.00039 | -50.00931 | 36349 ft | 394 kts | 276° |
| 2026-04-28 20:54 | 44.00444 | -50.08487 | 36350 ft | 394 kts | 276° |
| 2026-04-28 20:55 | 44.00845 | -50.16087 | 36349 ft | 394 kts | 276° |
| 2026-04-28 20:55 | 44.01241 | -50.23691 | 36349 ft | 394 kts | 276° |
| 2026-04-28 20:56 | 44.01635 | -50.31300 | 36349 ft | 395 kts | 276° |
| 2026-04-28 20:56 | 44.02023 | -50.38909 | 36351 ft | 395 kts | 276° |
| 2026-04-28 20:57 | 44.02404 | -50.46489 | 36350 ft | 395 kts | 276° |
| 2026-04-28 20:57 | 44.02780 | -50.54105 | 36355 ft | 395 kts | 275° |
| 2026-04-28 20:58 | 44.03146 | -50.61734 | 36361 ft | 395 kts | 275° |
| 2026-04-28 20:58 | 44.03509 | -50.69360 | 36360 ft | 395 kts | 275° |
| 2026-04-28 20:59 | 44.03874 | -50.76999 | 36362 ft | 396 kts | 275° |
| 2026-04-28 20:59 | 44.04229 | -50.84589 | 36360 ft | 396 kts | 275° |
| 2026-04-28 21:00 | 44.04580 | -50.92231 | 36361 ft | 397 kts | 275° |
| 2026-04-28 21:00 | 44.04930 | -50.99885 | 36361 ft | 397 kts | 275° |
| 2026-04-28 21:01 | 44.05273 | -51.07546 | 36358 ft | 397 kts | 275° |
| 2026-04-28 21:01 | 44.05610 | -51.15216 | 36359 ft | 398 kts | 275° |
| 2026-04-28 21:02 | 44.05943 | -51.22895 | 36361 ft | 398 kts | 275° |
| 2026-04-28 21:02 | 44.06218 | -51.29266 | 36360 ft | 398 kts | 274° |
| 2026-04-28 21:03 | 44.06593 | -51.38173 | 36360 ft | 399 kts | 274° |
| 2026-04-28 21:03 | 44.06855 | -51.44448 | 36365 ft | 398 kts | 274° |
| 2026-04-28 21:04 | 44.07171 | -51.52236 | 36370 ft | 399 kts | 274° |
| 2026-04-28 21:04 | 44.07530 | -51.61177 | 36370 ft | 399 kts | 274° |
| 2026-04-28 21:05 | 44.07785 | -51.67636 | 36371 ft | 399 kts | 274° |
| 2026-04-28 21:05 | 44.08084 | -51.75352 | 36371 ft | 399 kts | 274° |
| 2026-04-28 21:06 | 44.08380 | -51.83056 | 36369 ft | 399 kts | 274° |
| 2026-04-28 21:06 | 44.08669 | -51.90758 | 36370 ft | 399 kts | 274° |
| 2026-04-28 21:07 | 44.08951 | -51.98429 | 36371 ft | 400 kts | 274° |
| 2026-04-28 21:07 | 44.09230 | -52.06149 | 36370 ft | 400 kts | 274° |
| 2026-04-28 21:08 | 44.09504 | -52.13875 | 36370 ft | 400 kts | 274° |
| 2026-04-28 21:08 | 44.09772 | -52.21597 | 36370 ft | 399 kts | 274° |
| 2026-04-28 21:09 | 44.10034 | -52.29318 | 36370 ft | 399 kts | 274° |
| 2026-04-28 21:09 | 44.10293 | -52.37038 | 36371 ft | 400 kts | 274° |
| 2026-04-28 21:10 | 44.10548 | -52.44773 | 36372 ft | 399 kts | 274° |
| 2026-04-28 21:10 | 44.10797 | -52.52497 | 36370 ft | 399 kts | 273° |
| 2026-04-28 21:11 | 44.11037 | -52.60185 | 36371 ft | 398 kts | 273° |
| 2026-04-28 21:11 | 44.11274 | -52.67863 | 36359 ft | 397 kts | 272° |
| 2026-04-28 21:12 | 44.11506 | -52.75544 | 36363 ft | 397 kts | 272° |
| 2026-04-28 21:12 | 44.11731 | -52.83240 | 36394 ft | 398 kts | 272° |
| 2026-04-28 21:13 | 44.11983 | -52.90927 | 36415 ft | 398 kts | 272° |
| 2026-04-28 21:13 | 44.12226 | -52.98585 | 36418 ft | 398 kts | 272° |
| 2026-04-28 21:14 | 44.12466 | -53.06299 | 36420 ft | 399 kts | 272° |
| 2026-04-28 21:14 | 44.12702 | -53.14021 | 36418 ft | 399 kts | 272° |
| 2026-04-28 21:15 | 44.12936 | -53.21739 | 36425 ft | 398 kts | 272° |
| 2026-04-28 21:15 | 44.13162 | -53.29451 | 36430 ft | 399 kts | 272° |
| 2026-04-28 21:16 | 44.13379 | -53.37123 | 36429 ft | 398 kts | 272° |
| 2026-04-28 21:16 | 44.13595 | -53.44841 | 36430 ft | 398 kts | 271° |
| 2026-04-28 21:17 | 44.13806 | -53.52551 | 36430 ft | 397 kts | 271° |
| 2026-04-28 21:17 | 44.14009 | -53.60246 | 36430 ft | 397 kts | 271° |
| 2026-04-28 21:18 | 44.14206 | -53.67896 | 36429 ft | 397 kts | 271° |
| 2026-04-28 21:18 | 44.14402 | -53.75583 | 36433 ft | 397 kts | 271° |
| 2026-04-28 21:19 | 44.14593 | -53.83263 | 36428 ft | 396 kts | 271° |
| 2026-04-28 21:19 | 44.14773 | -53.90949 | 36427 ft | 396 kts | 271° |
| 2026-04-28 21:20 | 44.14948 | -53.98624 | 36430 ft | 396 kts | 271° |
| 2026-04-28 21:20 | 44.15119 | -54.06292 | 36431 ft | 396 kts | 271° |
| 2026-04-28 21:21 | 44.15290 | -54.13919 | 36431 ft | 396 kts | 271° |
| 2026-04-28 21:21 | 44.15452 | -54.21616 | 36430 ft | 396 kts | 271° |
| 2026-04-28 21:22 | 44.15611 | -54.29290 | 36430 ft | 397 kts | 271° |
| 2026-04-28 21:22 | 44.15737 | -54.35693 | 36428 ft | 397 kts | 271° |
| 2026-04-28 21:23 | 44.15910 | -54.44642 | 36429 ft | 398 kts | 271° |
| 2026-04-28 21:23 | 44.16049 | -54.52369 | 36431 ft | 398 kts | 271° |
| 2026-04-28 21:24 | 44.16191 | -54.60092 | 36430 ft | 399 kts | 270° |
| 2026-04-28 21:24 | 44.16321 | -54.67763 | 36428 ft | 399 kts | 270° |
| 2026-04-28 21:25 | 44.16448 | -54.75496 | 36429 ft | 399 kts | 271° |
| 2026-04-28 21:25 | 44.16569 | -54.83234 | 36429 ft | 399 kts | 270° |
| 2026-04-28 21:26 | 44.16478 | -54.90983 | 36434 ft | 400 kts | 265° |
| 2026-04-28 21:26 | 44.15943 | -54.98702 | 36428 ft | 400 kts | 264° |
| 2026-04-28 21:27 | 44.15393 | -55.06419 | 36432 ft | 400 kts | 264° |
| 2026-04-28 21:27 | 44.14841 | -55.14139 | 36430 ft | 400 kts | 264° |
| 2026-04-28 21:28 | 44.14291 | -55.21810 | 36431 ft | 400 kts | 264° |
| 2026-04-28 21:28 | 44.13724 | -55.29509 | 36429 ft | 399 kts | 264° |
| 2026-04-28 21:29 | 44.13147 | -55.37201 | 36428 ft | 399 kts | 264° |
| 2026-04-28 21:29 | 44.12573 | -55.44864 | 36427 ft | 398 kts | 264° |
| 2026-04-28 21:30 | 44.12001 | -55.52520 | 36426 ft | 397 kts | 264° |
| 2026-04-28 21:30 | 44.11439 | -55.60115 | 36426 ft | 397 kts | 264° |
| 2026-04-28 21:31 | 44.10871 | -55.67766 | 36422 ft | 397 kts | 264° |
| 2026-04-28 21:31 | 44.10288 | -55.75400 | 36422 ft | 397 kts | 264° |
| 2026-04-28 21:32 | 44.09697 | -55.83035 | 36422 ft | 396 kts | 263° |
| 2026-04-28 21:32 | 44.09101 | -55.90654 | 36417 ft | 396 kts | 263° |
| 2026-04-28 21:33 | 44.08507 | -55.98214 | 36419 ft | 395 kts | 263° |
| 2026-04-28 21:33 | 44.07900 | -56.05817 | 36423 ft | 396 kts | 263° |
| 2026-04-28 21:34 | 44.07294 | -56.13420 | 36416 ft | 396 kts | 263° |
| 2026-04-28 21:34 | 44.06678 | -56.21045 | 36419 ft | 396 kts | 263° |
| 2026-04-28 21:35 | 44.06057 | -56.28663 | 36420 ft | 397 kts | 263° |
| 2026-04-28 21:35 | 44.05431 | -56.36285 | 36419 ft | 397 kts | 263° |
| 2026-04-28 21:36 | 44.04797 | -56.43916 | 36422 ft | 398 kts | 263° |
| 2026-04-28 21:36 | 44.04164 | -56.51513 | 36420 ft | 399 kts | 263° |
| 2026-04-28 21:37 | 44.03518 | -56.59183 | 36422 ft | 400 kts | 263° |
| 2026-04-28 21:37 | 44.02864 | -56.66864 | 36417 ft | 400 kts | 263° |
| 2026-04-28 21:38 | 44.02210 | -56.74527 | 36407 ft | 402 kts | 263° |
| 2026-04-28 21:38 | 44.01545 | -56.82234 | 36407 ft | 403 kts | 263° |
| 2026-04-28 21:39 | 44.00869 | -56.89975 | 36411 ft | 404 kts | 263° |
| 2026-04-28 21:39 | 44.00188 | -56.97720 | 36409 ft | 405 kts | 263° |
| 2026-04-28 21:40 | 43.99764 | -57.05476 | 36410 ft | 402 kts | 265° |
| 2026-04-28 21:40 | 43.99440 | -57.13161 | 36408 ft | 398 kts | 265° |
| 2026-04-28 21:41 | 43.99114 | -57.20860 | 36411 ft | 399 kts | 265° |
| 2026-04-28 21:41 | 43.98788 | -57.28567 | 36408 ft | 400 kts | 265° |
| 2026-04-28 21:42 | 43.98449 | -57.36287 | 36416 ft | 401 kts | 265° |
| 2026-04-28 21:42 | 43.98109 | -57.44023 | 36409 ft | 402 kts | 265° |
| 2026-04-28 21:43 | 43.97764 | -57.51744 | 36408 ft | 403 kts | 266° |
| 2026-04-28 21:43 | 43.97412 | -57.59526 | 36402 ft | 404 kts | 266° |
| 2026-04-28 21:44 | 43.97052 | -57.67328 | 36403 ft | 405 kts | 266° |
| 2026-04-28 21:44 | 43.96687 | -57.75142 | 36404 ft | 406 kts | 266° |
| 2026-04-28 21:45 | 43.96320 | -57.82972 | 36400 ft | 407 kts | 266° |
| 2026-04-28 21:45 | 43.95946 | -57.90781 | 36398 ft | 407 kts | 266° |
| 2026-04-28 21:46 | 43.95557 | -57.98607 | 36399 ft | 407 kts | 265° |
| 2026-04-28 21:46 | 43.95168 | -58.06442 | 36394 ft | 407 kts | 266° |
| 2026-04-28 21:47 | 43.94779 | -58.14275 | 36395 ft | 407 kts | 265° |
| 2026-04-28 21:47 | 43.94381 | -58.22096 | 36398 ft | 407 kts | 265° |
| 2026-04-28 21:48 | 43.93979 | -58.29941 | 36403 ft | 407 kts | 265° |
| 2026-04-28 21:48 | 43.93575 | -58.37724 | 36393 ft | 407 kts | 265° |
| 2026-04-28 21:49 | 43.93165 | -58.45552 | 36388 ft | 407 kts | 265° |
| 2026-04-28 21:49 | 43.92744 | -58.53392 | 36387 ft | 407 kts | 265° |
| 2026-04-28 21:50 | 43.92320 | -58.61236 | 36388 ft | 407 kts | 265° |
| 2026-04-28 21:50 | 43.91961 | -58.67751 | 36381 ft | 408 kts | 265° |
| 2026-04-28 21:51 | 43.91455 | -58.76893 | 36379 ft | 408 kts | 265° |
| 2026-04-28 21:51 | 43.91009 | -58.84750 | 36381 ft | 409 kts | 265° |
| 2026-04-28 21:52 | 43.90633 | -58.91291 | 36380 ft | 409 kts | 264° |
| 2026-04-28 21:52 | 43.90182 | -58.99155 | 36381 ft | 409 kts | 264° |
| 2026-04-28 21:53 | 43.89722 | -59.07042 | 36380 ft | 410 kts | 264° |
| 2026-04-28 21:53 | 43.89255 | -59.14893 | 36380 ft | 410 kts | 264° |
| 2026-04-28 21:54 | 43.88780 | -59.22784 | 36381 ft | 411 kts | 264° |
| 2026-04-28 21:54 | 43.88306 | -59.30712 | 36381 ft | 412 kts | 264° |
| 2026-04-28 21:55 | 43.87826 | -59.38587 | 36379 ft | 412 kts | 264° |
| 2026-04-28 21:55 | 43.87334 | -59.46514 | 36381 ft | 412 kts | 264° |
| 2026-04-28 21:56 | 43.86838 | -59.54452 | 36382 ft | 413 kts | 264° |
| 2026-04-28 21:56 | 43.86332 | -59.62404 | 36382 ft | 414 kts | 264° |
| 2026-04-28 21:57 | 43.85823 | -59.70361 | 36382 ft | 414 kts | 264° |
| 2026-04-28 21:57 | 43.85565 | -59.74299 | 36506 ft | 416 kts | 264° |
| 2026-04-28 21:57 | 43.85306 | -59.78286 | 36773 ft | 415 kts | 264° |
| 2026-04-28 21:58 | 43.85048 | -59.82272 | 37077 ft | 414 kts | 264° |
| 2026-04-28 21:58 | 43.84791 | -59.86234 | 37381 ft | 412 kts | 264° |
| 2026-04-28 21:58 | 43.84533 | -59.90188 | 37667 ft | 411 kts | 264° |
| 2026-04-28 21:58 | 43.84271 | -59.94130 | 37902 ft | 410 kts | 264° |
| 2026-04-28 21:59 | 43.84007 | -59.98077 | 38093 ft | 411 kts | 264° |
| 2026-04-28 21:59 | 43.83746 | -60.01973 | 38271 ft | 411 kts | 264° |
| 2026-04-28 21:59 | 43.83480 | -60.05919 | 38412 ft | 412 kts | 264° |
| 2026-04-28 22:00 | 43.82945 | -60.13835 | 38398 ft | 412 kts | 264° |
| 2026-04-28 22:00 | 43.82390 | -60.21741 | 38384 ft | 412 kts | 263° |
| 2026-04-28 22:01 | 43.81835 | -60.29645 | 38381 ft | 412 kts | 264° |
| 2026-04-28 22:01 | 43.81286 | -60.37566 | 38380 ft | 412 kts | 264° |
| 2026-04-28 22:02 | 43.80732 | -60.45488 | 38381 ft | 413 kts | 264° |
| 2026-04-28 22:02 | 43.80173 | -60.53366 | 38379 ft | 414 kts | 263° |
| 2026-04-28 22:03 | 43.79592 | -60.61316 | 38379 ft | 415 kts | 264° |
| 2026-04-28 22:03 | 43.79026 | -60.69233 | 38380 ft | 415 kts | 264° |
| 2026-04-28 22:04 | 43.78443 | -60.77201 | 38380 ft | 416 kts | 263° |
| 2026-04-28 22:04 | 43.77846 | -60.85192 | 38381 ft | 418 kts | 263° |
| 2026-04-28 22:05 | 43.77250 | -60.93195 | 38381 ft | 418 kts | 263° |
| 2026-04-28 22:05 | 43.76643 | -61.01206 | 38381 ft | 418 kts | 263° |
| 2026-04-28 22:06 | 43.76030 | -61.09223 | 38381 ft | 419 kts | 263° |
| 2026-04-28 22:06 | 43.75414 | -61.17239 | 38381 ft | 420 kts | 263° |
| 2026-04-28 22:07 | 43.74790 | -61.25276 | 38379 ft | 420 kts | 263° |
| 2026-04-28 22:07 | 43.74161 | -61.33268 | 38380 ft | 421 kts | 264° |
| 2026-04-28 22:08 | 43.73525 | -61.41336 | 38377 ft | 421 kts | 263° |
| 2026-04-28 22:08 | 43.72877 | -61.49397 | 38371 ft | 421 kts | 263° |
| 2026-04-28 22:09 | 43.72229 | -61.57456 | 38371 ft | 421 kts | 264° |
| 2026-04-28 22:09 | 43.71571 | -61.65516 | 38370 ft | 421 kts | 264° |
| 2026-04-28 22:10 | 43.70911 | -61.73578 | 38370 ft | 422 kts | 264° |
| 2026-04-28 22:10 | 43.70249 | -61.81581 | 38370 ft | 422 kts | 264° |
| 2026-04-28 22:11 | 43.69576 | -61.89643 | 38363 ft | 422 kts | 264° |
| 2026-04-28 22:11 | 43.68896 | -61.97701 | 38360 ft | 422 kts | 263° |
| 2026-04-28 22:12 | 43.68213 | -62.05753 | 38360 ft | 423 kts | 264° |
| 2026-04-28 22:12 | 43.67523 | -62.13828 | 38360 ft | 423 kts | 263° |
| 2026-04-28 22:13 | 43.66821 | -62.21903 | 38360 ft | 423 kts | 263° |
| 2026-04-28 22:13 | 43.66116 | -62.29996 | 38360 ft | 424 kts | 263° |
| 2026-04-28 22:14 | 43.65411 | -62.38054 | 38360 ft | 424 kts | 263° |
| 2026-04-28 22:14 | 43.64692 | -62.46131 | 38360 ft | 424 kts | 263° |
| 2026-04-28 22:15 | 43.63969 | -62.54243 | 38360 ft | 426 kts | 263° |
| 2026-04-28 22:15 | 43.63241 | -62.62357 | 38360 ft | 426 kts | 263° |
| 2026-04-28 22:16 | 43.62505 | -62.70471 | 38361 ft | 426 kts | 263° |
| 2026-04-28 22:16 | 43.61761 | -62.78596 | 38360 ft | 427 kts | 263° |
| 2026-04-28 22:17 | 43.61016 | -62.86676 | 38360 ft | 428 kts | 263° |
| 2026-04-28 22:17 | 43.60258 | -62.94826 | 38360 ft | 428 kts | 263° |
| 2026-04-28 22:18 | 43.59496 | -63.02965 | 38360 ft | 429 kts | 263° |
| 2026-04-28 22:18 | 43.58722 | -63.11144 | 38361 ft | 429 kts | 263° |
| 2026-04-28 22:19 | 43.57946 | -63.19309 | 38353 ft | 429 kts | 263° |
| 2026-04-28 22:19 | 43.57163 | -63.27484 | 38350 ft | 430 kts | 263° |
| 2026-04-28 22:20 | 43.56373 | -63.35650 | 38350 ft | 430 kts | 263° |
| 2026-04-28 22:20 | 43.55583 | -63.43773 | 38350 ft | 430 kts | 263° |
| 2026-04-28 22:21 | 43.54781 | -63.51947 | 38350 ft | 430 kts | 263° |
| 2026-04-28 22:21 | 43.53976 | -63.60113 | 38334 ft | 430 kts | 263° |
| 2026-04-28 22:22 | 43.53161 | -63.68283 | 38331 ft | 430 kts | 263° |
| 2026-04-28 22:22 | 43.52339 | -63.76469 | 38330 ft | 431 kts | 263° |
| 2026-04-28 22:23 | 43.51519 | -63.84590 | 38331 ft | 430 kts | 263° |
| 2026-04-28 22:23 | 43.50688 | -63.92749 | 38330 ft | 430 kts | 263° |
| 2026-04-28 22:24 | 43.49850 | -64.00916 | 38330 ft | 430 kts | 263° |
| 2026-04-28 22:24 | 43.49006 | -64.09075 | 38330 ft | 430 kts | 264° |
| 2026-04-28 22:25 | 43.48159 | -64.17254 | 38329 ft | 431 kts | 263° |
| 2026-04-28 22:25 | 43.47300 | -64.25434 | 38321 ft | 431 kts | 263° |
| 2026-04-28 22:26 | 43.46445 | -64.33556 | 38319 ft | 432 kts | 264° |
| 2026-04-28 22:26 | 43.45571 | -64.41745 | 38320 ft | 432 kts | 264° |
| 2026-04-28 22:27 | 43.44697 | -64.49922 | 38321 ft | 432 kts | 264° |
| 2026-04-28 22:27 | 43.43819 | -64.58106 | 38321 ft | 432 kts | 264° |
| 2026-04-28 22:28 | 43.42931 | -64.66286 | 38293 ft | 432 kts | 264° |
| 2026-04-28 22:28 | 43.42036 | -64.74469 | 38269 ft | 432 kts | 264° |
| 2026-04-28 22:29 | 43.41139 | -64.82645 | 38261 ft | 432 kts | 264° |
| 2026-04-28 22:29 | 43.40233 | -64.90822 | 38261 ft | 432 kts | 264° |
| 2026-04-28 22:30 | 43.39320 | -64.99008 | 38245 ft | 433 kts | 264° |
| 2026-04-28 22:30 | 43.38403 | -65.07186 | 38229 ft | 433 kts | 265° |
| 2026-04-28 22:31 | 43.37488 | -65.15309 | 38229 ft | 433 kts | 265° |
| 2026-04-28 22:31 | 43.36556 | -65.23491 | 38227 ft | 433 kts | 265° |
| 2026-04-28 22:32 | 43.35619 | -65.31662 | 38226 ft | 433 kts | 265° |
| 2026-04-28 22:32 | 43.34678 | -65.39841 | 38236 ft | 433 kts | 265° |
| 2026-04-28 22:33 | 43.33736 | -65.47974 | 38225 ft | 433 kts | 265° |
| 2026-04-28 22:33 | 43.32782 | -65.56155 | 38228 ft | 433 kts | 265° |
| 2026-04-28 22:34 | 43.31824 | -65.64318 | 38235 ft | 433 kts | 265° |
| 2026-04-28 22:34 | 43.30858 | -65.72500 | 38225 ft | 433 kts | 265° |
| 2026-04-28 22:35 | 43.29888 | -65.80658 | 38220 ft | 433 kts | 265° |
| 2026-04-28 22:35 | 43.28917 | -65.88774 | 38226 ft | 433 kts | 265° |
| 2026-04-28 22:36 | 43.27932 | -65.96943 | 38220 ft | 434 kts | 265° |
| 2026-04-28 22:36 | 43.26940 | -66.05117 | 38224 ft | 433 kts | 266° |
| 2026-04-28 22:37 | 43.25947 | -66.13259 | 38220 ft | 432 kts | 266° |
| 2026-04-28 22:37 | 43.24958 | -66.21332 | 38217 ft | 431 kts | 266° |
| 2026-04-28 22:38 | 43.23958 | -66.29451 | 38214 ft | 432 kts | 266° |
| 2026-04-28 22:38 | 43.23112 | -66.36249 | 38218 ft | 432 kts | 266° |
| 2026-04-28 22:39 | 43.22106 | -66.44323 | 38225 ft | 432 kts | 266° |
| 2026-04-28 22:39 | 43.21086 | -66.52440 | 38217 ft | 431 kts | 267° |
| 2026-04-28 22:40 | 43.20065 | -66.60534 | 38220 ft | 431 kts | 267° |
| 2026-04-28 22:40 | 43.19039 | -66.68629 | 38233 ft | 431 kts | 267° |
| 2026-04-28 22:41 | 43.18002 | -66.76724 | 38234 ft | 431 kts | 267° |
| 2026-04-28 22:41 | 43.16969 | -66.84762 | 38234 ft | 430 kts | 267° |
| 2026-04-28 22:42 | 43.15924 | -66.92828 | 38231 ft | 429 kts | 267° |
| 2026-04-28 22:42 | 43.14861 | -67.00874 | 38229 ft | 430 kts | 266° |
| 2026-04-28 22:43 | 43.13683 | -67.08895 | 38228 ft | 430 kts | 266° |
| 2026-04-28 22:43 | 43.12493 | -67.16915 | 38230 ft | 429 kts | 266° |
| 2026-04-28 22:44 | 43.11302 | -67.24923 | 38223 ft | 429 kts | 266° |
| 2026-04-28 22:44 | 43.10102 | -67.32931 | 38232 ft | 429 kts | 266° |
| 2026-04-28 22:45 | 43.08900 | -67.40926 | 38229 ft | 429 kts | 266° |
| 2026-04-28 22:45 | 43.07692 | -67.48913 | 38231 ft | 428 kts | 266° |
| 2026-04-28 22:46 | 43.06487 | -67.56836 | 38233 ft | 428 kts | 266° |
| 2026-04-28 22:46 | 43.05270 | -67.64803 | 38227 ft | 428 kts | 266° |
| 2026-04-28 22:47 | 43.04048 | -67.72767 | 38242 ft | 428 kts | 266° |
| 2026-04-28 22:47 | 43.02821 | -67.80731 | 38243 ft | 428 kts | 266° |
| 2026-04-28 22:48 | 43.01587 | -67.88686 | 38231 ft | 428 kts | 266° |
| 2026-04-28 22:48 | 43.00348 | -67.96636 | 38240 ft | 428 kts | 266° |
| 2026-04-28 22:49 | 42.99105 | -68.04579 | 38243 ft | 427 kts | 266° |
| 2026-04-28 22:49 | 42.97864 | -68.12443 | 38240 ft | 422 kts | 266° |
| 2026-04-28 22:50 | 42.96628 | -68.20283 | 38249 ft | 422 kts | 266° |
| 2026-04-28 22:50 | 42.95385 | -68.28122 | 38251 ft | 422 kts | 266° |
| 2026-04-28 22:51 | 42.94144 | -68.35907 | 38252 ft | 422 kts | 266° |
| 2026-04-28 22:51 | 42.92889 | -68.43727 | 38255 ft | 421 kts | 266° |
| 2026-04-28 22:52 | 42.91632 | -68.51543 | 38260 ft | 422 kts | 266° |
| 2026-04-28 22:52 | 42.90371 | -68.59313 | 37931 ft | 414 kts | 266° |
| 2026-04-28 22:52 | 42.89748 | -68.63154 | 37311 ft | 414 kts | 266° |
| 2026-04-28 22:53 | 42.89127 | -68.66986 | 36656 ft | 414 kts | 266° |
| 2026-04-28 22:53 | 42.88502 | -68.70825 | 35992 ft | 414 kts | 265° |
| 2026-04-28 22:53 | 42.87876 | -68.74661 | 35311 ft | 416 kts | 265° |
| 2026-04-28 22:53 | 42.87246 | -68.78519 | 34631 ft | 418 kts | 265° |
| 2026-04-28 22:54 | 42.86619 | -68.82344 | 34032 ft | 418 kts | 264° |
| 2026-04-28 22:54 | 42.85981 | -68.86201 | 33508 ft | 416 kts | 264° |
| 2026-04-28 22:54 | 42.85345 | -68.90041 | 32979 ft | 414 kts | 264° |
| 2026-04-28 22:54 | 42.84714 | -68.93860 | 32461 ft | 413 kts | 264° |
| 2026-04-28 22:55 | 42.84083 | -68.97675 | 31921 ft | 412 kts | 264° |
| 2026-04-28 22:55 | 42.83452 | -69.01485 | 31375 ft | 412 kts | 263° |
| 2026-04-28 22:55 | 42.82821 | -69.05284 | 30853 ft | 411 kts | 263° |
| 2026-04-28 22:55 | 42.82189 | -69.09079 | 30335 ft | 411 kts | 263° |
| 2026-04-28 22:56 | 42.81555 | -69.12868 | 29791 ft | 411 kts | 263° |
| 2026-04-28 22:56 | 42.80920 | -69.16666 | 29238 ft | 411 kts | 262° |
| 2026-04-28 22:56 | 42.80284 | -69.20459 | 28687 ft | 410 kts | 262° |
| 2026-04-28 22:56 | 42.79648 | -69.24235 | 28154 ft | 409 kts | 261° |
| 2026-04-28 22:57 | 42.79011 | -69.28005 | 27619 ft | 408 kts | 261° |
| 2026-04-28 22:57 | 42.78376 | -69.31770 | 27055 ft | 407 kts | 261° |
| 2026-04-28 22:57 | 42.77741 | -69.35523 | 26500 ft | 406 kts | 260° |
| 2026-04-28 22:57 | 42.77105 | -69.39274 | 25961 ft | 405 kts | 260° |
| 2026-04-28 22:58 | 42.76472 | -69.42999 | 25431 ft | 403 kts | 260° |
| 2026-04-28 22:58 | 42.75842 | -69.46701 | 24886 ft | 401 kts | 259° |
| 2026-04-28 22:58 | 42.75220 | -69.50339 | 24342 ft | 399 kts | 259° |
| 2026-04-28 22:58 | 42.74592 | -69.54009 | 23786 ft | 398 kts | 259° |
| 2026-04-28 22:59 | 42.73958 | -69.57714 | 23244 ft | 396 kts | 259° |
| 2026-04-28 22:59 | 42.73341 | -69.61302 | 22736 ft | 394 kts | 259° |
| 2026-04-28 22:59 | 42.72712 | -69.64921 | 22189 ft | 392 kts | 259° |
| 2026-04-28 22:59 | 42.72083 | -69.68527 | 21649 ft | 391 kts | 258° |
| 2026-04-28 23:00 | 42.71460 | -69.72116 | 21116 ft | 389 kts | 259° |
| 2026-04-28 23:00 | 42.70838 | -69.75699 | 20592 ft | 387 kts | 258° |
| 2026-04-28 23:00 | 42.70224 | -69.79248 | 20080 ft | 385 kts | 258° |
| 2026-04-28 23:00 | 42.69610 | -69.82789 | 19600 ft | 382 kts | 258° |
| 2026-04-28 23:01 | 42.69002 | -69.86296 | 19136 ft | 380 kts | 258° |
| 2026-04-28 23:01 | 42.68396 | -69.89790 | 18666 ft | 378 kts | 258° |
| 2026-04-28 23:01 | 42.67797 | -69.93230 | 18210 ft | 372 kts | 258° |
| 2026-04-28 23:01 | 42.67204 | -69.96633 | 17776 ft | 366 kts | 258° |
| 2026-04-28 23:02 | 42.66627 | -69.99927 | 17339 ft | 360 kts | 258° |
| 2026-04-28 23:02 | 42.66051 | -70.03212 | 16904 ft | 355 kts | 258° |
| 2026-04-28 23:02 | 42.65481 | -70.06457 | 16477 ft | 350 kts | 258° |
| 2026-04-28 23:02 | 42.64793 | -70.09611 | 16072 ft | 348 kts | 249° |
| 2026-04-28 23:03 | 42.63798 | -70.12614 | 15648 ft | 346 kts | 246° |
| 2026-04-28 23:03 | 42.62776 | -70.15554 | 15183 ft | 343 kts | 246° |
| 2026-04-28 23:03 | 42.61759 | -70.18476 | 14731 ft | 342 kts | 246° |
| 2026-04-28 23:03 | 42.60745 | -70.21406 | 14280 ft | 344 kts | 246° |
| 2026-04-28 23:04 | 42.59820 | -70.24398 | 13875 ft | 341 kts | 252° |
| 2026-04-28 23:04 | 42.58335 | -70.30277 | 13485 ft | 319 kts | 252° |
| 2026-04-28 23:04 | 42.57629 | -70.33086 | 13279 ft | 312 kts | 252° |
| 2026-04-28 23:05 | 42.56930 | -70.35860 | 13035 ft | 309 kts | 252° |
| 2026-04-28 23:05 | 42.56235 | -70.38602 | 12790 ft | 306 kts | 252° |
| 2026-04-28 23:05 | 42.55545 | -70.41320 | 12542 ft | 304 kts | 252° |
| 2026-04-28 23:05 | 42.54855 | -70.44043 | 12292 ft | 308 kts | 252° |
| 2026-04-28 23:06 | 42.54156 | -70.46797 | 12046 ft | 309 kts | 252° |
| 2026-04-28 23:06 | 42.53463 | -70.49524 | 11798 ft | 307 kts | 252° |
| 2026-04-28 23:06 | 42.52769 | -70.52258 | 11545 ft | 306 kts | 252° |
| 2026-04-28 23:06 | 42.52123 | -70.55012 | 11315 ft | 306 kts | 254° |
| 2026-04-28 23:07 | 42.51501 | -70.57767 | 11115 ft | 305 kts | 254° |
| 2026-04-28 23:07 | 42.50874 | -70.60519 | 10899 ft | 305 kts | 254° |
| 2026-04-28 23:07 | 42.50245 | -70.63263 | 10700 ft | 305 kts | 254° |
| 2026-04-28 23:07 | 42.49615 | -70.66001 | 10499 ft | 304 kts | 253° |
| 2026-04-28 23:08 | 42.48985 | -70.68727 | 10306 ft | 303 kts | 253° |
| 2026-04-28 23:08 | 42.48355 | -70.71453 | 10150 ft | 303 kts | 254° |
| 2026-04-28 23:08 | 42.47724 | -70.74176 | 10031 ft | 303 kts | 253° |
| 2026-04-28 23:08 | 42.47092 | -70.76899 | 9896 ft | 301 kts | 253° |
| 2026-04-28 23:09 | 42.46464 | -70.79597 | 9749 ft | 298 kts | 253° |
| 2026-04-28 23:09 | 42.45762 | -70.82200 | 9571 ft | 293 kts | 243° |
| 2026-04-28 23:09 | 42.44552 | -70.84367 | 9404 ft | 284 kts | 225° |
| 2026-04-28 23:09 | 42.43188 | -70.86187 | 9271 ft | 273 kts | 224° |
| 2026-04-28 23:10 | 42.41839 | -70.87934 | 9122 ft | 265 kts | 221° |
| 2026-04-28 23:10 | 42.40306 | -70.89249 | 8877 ft | 261 kts | 200° |
| 2026-04-28 23:10 | 42.38603 | -70.90076 | 8494 ft | 261 kts | 197° |
| 2026-04-28 23:10 | 42.36868 | -70.90860 | 8075 ft | 263 kts | 197° |
| 2026-04-28 23:11 | 42.35138 | -70.91655 | 7757 ft | 261 kts | 197° |
| 2026-04-28 23:11 | 42.33423 | -70.92456 | 7462 ft | 258 kts | 197° |
| 2026-04-28 23:11 | 42.31736 | -70.93253 | 7138 ft | 256 kts | 197° |
| 2026-04-28 23:11 | 42.30055 | -70.94031 | 6827 ft | 255 kts | 196° |
| 2026-04-28 23:12 | 42.28374 | -70.94748 | 6490 ft | 253 kts | 195° |
| 2026-04-28 23:12 | 42.26696 | -70.95462 | 6166 ft | 252 kts | 195° |
| 2026-04-28 23:12 | 42.25054 | -70.96158 | 5849 ft | 250 kts | 195° |
| 2026-04-28 23:12 | 42.23377 | -70.96871 | 5527 ft | 249 kts | 195° |
| 2026-04-28 23:13 | 42.21746 | -70.97566 | 5215 ft | 248 kts | 195° |
| 2026-04-28 23:13 | 42.20106 | -70.98264 | 4892 ft | 247 kts | 195° |
| 2026-04-28 23:13 | 42.18472 | -70.98964 | 4573 ft | 246 kts | 195° |
| 2026-04-28 23:13 | 42.16859 | -70.99707 | 4259 ft | 246 kts | 204° |
| 2026-04-28 23:14 | 42.15543 | -71.01155 | 3956 ft | 247 kts | 233° |
| 2026-04-28 23:14 | 42.14862 | -71.03253 | 3726 ft | 245 kts | 262° |
| 2026-04-28 23:14 | 42.14939 | -71.05501 | 3524 ft | 240 kts | 289° |
| 2026-04-28 23:14 | 42.15701 | -71.07450 | 3327 ft | 233 kts | 315° |
| 2026-04-28 23:15 | 42.16938 | -71.08734 | 3167 ft | 217 kts | 340° |
| 2026-04-28 23:15 | 42.18332 | -71.09133 | 3006 ft | 197 kts | 9° |
| 2026-04-28 23:15 | 42.19606 | -71.08746 | 2950 ft | 187 kts | 23° |
| 2026-04-28 23:15 | 42.20804 | -71.08089 | 2934 ft | 186 kts | 22° |
| 2026-04-28 23:16 | 42.22023 | -71.07494 | 2783 ft | 186 kts | 22° |
| 2026-04-28 23:16 | 42.23244 | -71.06904 | 2554 ft | 187 kts | 22° |
| 2026-04-28 23:16 | 42.24470 | -71.06312 | 2312 ft | 187 kts | 22° |
| 2026-04-28 23:16 | 42.25701 | -71.05718 | 2058 ft | 188 kts | 21° |
| 2026-04-28 23:17 | 42.26893 | -71.05143 | 1857 ft | 176 kts | 22° |
| 2026-04-28 23:17 | 42.28008 | -71.04605 | 1625 ft | 164 kts | 22° |
| 2026-04-28 23:17 | 42.29011 | -71.04121 | 1435 ft | 142 kts | 23° |
| 2026-04-28 23:17 | 42.29859 | -71.03710 | 1209 ft | 122 kts | 23° |
| 2026-04-28 23:18 | 42.30660 | -71.03321 | 1032 ft | 121 kts | 23° |
| 2026-04-28 23:18 | 42.31456 | -71.02936 | 871 ft | 121 kts | 23° |
| 2026-04-28 23:18 | 42.32255 | -71.02550 | 715 ft | 122 kts | 23° |
| 2026-04-28 23:18 | 42.33045 | -71.02169 | 553 ft | 122 kts | 22° |
| 2026-04-28 23:19 | 42.33843 | -71.01783 | 386 ft | 121 kts | 22° |
| 2026-04-28 23:19 | 42.34644 | -71.01395 | 228 ft | 122 kts | 22° |
| 2026-04-28 23:19 | 42.35449 | -71.01005 | 63 ft | 123 kts | 21° |
| 2026-04-28 23:19 | 42.36206 | -71.00647 | 31 ft | 97 kts | 20° |
| 2026-04-28 23:20 | 42.36654 | -71.00448 | 31 ft | 39 kts | 2° |
| 2026-04-28 23:20 | 42.36783 | -71.00447 | 32 ft | 16 kts | 357° |
| 2026-04-28 23:20 | 42.36899 | -71.00470 | 31 ft | 18 kts | 350° |
| 2026-04-28 23:20 | 42.36976 | -71.00493 | 29 ft | 10 kts | 346° |
| 2026-04-28 23:21 | 42.37050 | -71.00518 | 27 ft | 12 kts | 346° |
| 2026-04-28 23:21 | 42.37124 | -71.00596 | 27 ft | 15 kts | 314° |
| 2026-04-28 23:21 | 42.37202 | -71.00705 | 27 ft | 17 kts | 314° |
| 2026-04-28 23:21 | 42.37289 | -71.00827 | 26 ft | 19 kts | 311° |
| 2026-04-28 23:22 | 42.37223 | -71.00954 | 28 ft | 22 kts | 204° |
| 2026-04-28 23:22 | 42.37128 | -71.01013 | 27 ft | 23 kts | 205° |
| 2026-04-28 23:22 | 42.36998 | -71.01097 | 29 ft | 15 kts | 207° |
| 2026-04-28 23:22 | 42.36936 | -71.01156 | 30 ft | 17 kts | 223° |
| 2026-04-28 23:23 | 42.36845 | -71.01273 | 30 ft | 19 kts | 239° |
| 2026-04-28 23:23 | 42.36907 | -71.01423 | 32 ft | 22 kts | 314° |
| 2026-04-28 23:23 | 42.36987 | -71.01563 | 33 ft | 12 kts | 262° |
| 2026-04-28 23:23 | 42.36975 | -71.01681 | 33 ft | 15 kts | 291° |
| 2026-04-28 23:24 | 42.36983 | -71.01709 | 33 ft | 2 kts | 288° |
| 2026-04-28 23:24 | 42.36984 | -71.01715 | 33 ft | 0 kts | 288° |